sensor_id;sensor_type;location;lat;lon;timestamp;P1;durP1;ratioP1;P2;durP2;ratioP2
29302;SDS011;60019;45.556;12.004;2023-02-05T00:02:26;130.52;;;69.78;;
29302;SDS011;60019;45.556;12.004;2023-02-05T00:08:28;108.97;;;56.88;;
29302;SDS011;60019;45.556;12.004;2023-02-05T00:14:31;107.00;;;55.35;;
29302;SDS011;60019;45.556;12.004;2023-02-05T00:20:32;91.63;;;50.30;;
29302;SDS011;60019;45.556;12.004;2023-02-05T00:26:34;92.75;;;51.17;;
29302;SDS011;60019;45.556;12.004;2023-02-05T00:32:35;90.70;;;47.60;;
29302;SDS011;60019;45.556;12.004;2023-02-05T00:38:37;81.25;;;44.88;;
29302;SDS011;60019;45.556;12.004;2023-02-05T00:44:39;73.53;;;41.85;;
29302;SDS011;60019;45.556;12.004;2023-02-05T00:50:41;75.68;;;41.05;;
29302;SDS011;60019;45.556;12.004;2023-02-05T00:56:43;65.85;;;37.78;;
29302;SDS011;60019;45.556;12.004;2023-02-05T01:02:44;67.95;;;35.92;;
29302;SDS011;60019;45.556;12.004;2023-02-05T01:08:46;59.72;;;34.50;;
29302;SDS011;60019;45.556;12.004;2023-02-05T01:14:48;64.28;;;34.55;;
29302;SDS011;60019;45.556;12.004;2023-02-05T01:20:49;55.92;;;33.58;;
29302;SDS011;60019;45.556;12.004;2023-02-05T01:26:51;59.47;;;33.40;;
29302;SDS011;60019;45.556;12.004;2023-02-05T01:32:55;53.47;;;31.98;;
29302;SDS011;60019;45.556;12.004;2023-02-05T01:38:58;63.42;;;34.13;;
29302;SDS011;60019;45.556;12.004;2023-02-05T01:51:29;57.35;;;30.42;;
29302;SDS011;60019;45.556;12.004;2023-02-05T01:57:33;55.63;;;30.30;;
29302;SDS011;60019;45.556;12.004;2023-02-05T02:03:37;56.00;;;28.98;;
29302;SDS011;60019;45.556;12.004;2023-02-05T02:09:41;50.30;;;26.88;;
29302;SDS011;60019;45.556;12.004;2023-02-05T02:15:43;48.30;;;27.42;;
29302;SDS011;60019;45.556;12.004;2023-02-05T02:28:28;40.75;;;23.67;;
29302;SDS011;60019;45.556;12.004;2023-02-05T02:34:46;37.47;;;21.92;;
29302;SDS011;60019;45.556;12.004;2023-02-05T02:40:52;37.85;;;20.85;;
29302;SDS011;60019;45.556;12.004;2023-02-05T02:46:59;34.47;;;19.83;;
29302;SDS011;60019;45.556;12.004;2023-02-05T02:53:10;33.75;;;19.73;;
29302;SDS011;60019;45.556;12.004;2023-02-05T02:59:19;30.20;;;17.08;;
29302;SDS011;60019;45.556;12.004;2023-02-05T03:05:24;28.98;;;16.10;;
29302;SDS011;60019;45.556;12.004;2023-02-05T03:11:28;31.40;;;20.02;;
29302;SDS011;60019;45.556;12.004;2023-02-05T03:17:30;27.67;;;17.35;;
29302;SDS011;60019;45.556;12.004;2023-02-05T03:23:52;29.13;;;15.10;;
29302;SDS011;60019;45.556;12.004;2023-02-05T03:29:54;29.90;;;14.07;;
29302;SDS011;60019;45.556;12.004;2023-02-05T03:55:19;19.52;;;9.75;;
29302;SDS011;60019;45.556;12.004;2023-02-05T04:01:26;13.43;;;8.18;;
29302;SDS011;60019;45.556;12.004;2023-02-05T04:07:30;20.60;;;8.45;;
29302;SDS011;60019;45.556;12.004;2023-02-05T04:13:31;13.60;;;7.65;;
29302;SDS011;60019;45.556;12.004;2023-02-05T04:19:35;11.23;;;6.07;;
29302;SDS011;60019;45.556;12.004;2023-02-05T04:25:38;17.27;;;7.22;;
29302;SDS011;60019;45.556;12.004;2023-02-05T04:31:42;10.85;;;6.65;;
29302;SDS011;60019;45.556;12.004;2023-02-05T04:37:46;10.73;;;6.93;;
29302;SDS011;60019;45.556;12.004;2023-02-05T04:43:48;11.98;;;6.97;;
29302;SDS011;60019;45.556;12.004;2023-02-05T04:49:50;16.58;;;6.13;;
29302;SDS011;60019;45.556;12.004;2023-02-05T04:55:51;11.73;;;6.45;;
29302;SDS011;60019;45.556;12.004;2023-02-05T05:01:54;10.60;;;5.82;;
29302;SDS011;60019;45.556;12.004;2023-02-05T05:07:57;8.18;;;5.90;;
29302;SDS011;60019;45.556;12.004;2023-02-05T05:13:59;9.80;;;5.95;;
29302;SDS011;60019;45.556;12.004;2023-02-05T05:20:01;8.77;;;5.65;;
29302;SDS011;60019;45.556;12.004;2023-02-05T05:26:04;10.60;;;5.63;;
29302;SDS011;60019;45.556;12.004;2023-02-05T05:32:07;11.15;;;5.90;;
29302;SDS011;60019;45.556;12.004;2023-02-05T05:38:08;9.23;;;6.00;;
29302;SDS011;60019;45.556;12.004;2023-02-05T05:44:10;8.88;;;5.80;;
29302;SDS011;60019;45.556;12.004;2023-02-05T05:50:12;10.88;;;5.78;;
29302;SDS011;60019;45.556;12.004;2023-02-05T05:56:14;9.73;;;4.65;;
29302;SDS011;60019;45.556;12.004;2023-02-05T06:02:16;13.07;;;5.43;;
29302;SDS011;60019;45.556;12.004;2023-02-05T06:08:17;8.77;;;5.03;;
29302;SDS011;60019;45.556;12.004;2023-02-05T06:14:19;14.70;;;6.43;;
29302;SDS011;60019;45.556;12.004;2023-02-05T06:20:21;9.25;;;5.97;;
29302;SDS011;60019;45.556;12.004;2023-02-05T06:26:22;8.98;;;5.35;;
29302;SDS011;60019;45.556;12.004;2023-02-05T06:32:24;12.05;;;6.40;;
29302;SDS011;60019;45.556;12.004;2023-02-05T06:38:26;9.73;;;5.82;;
29302;SDS011;60019;45.556;12.004;2023-02-05T06:44:27;10.63;;;6.57;;
29302;SDS011;60019;45.556;12.004;2023-02-05T06:50:29;9.93;;;6.15;;
29302;SDS011;60019;45.556;12.004;2023-02-05T06:56:30;14.30;;;7.07;;
29302;SDS011;60019;45.556;12.004;2023-02-05T07:02:32;10.18;;;6.32;;
29302;SDS011;60019;45.556;12.004;2023-02-05T07:08:34;8.55;;;5.68;;
29302;SDS011;60019;45.556;12.004;2023-02-05T07:14:37;16.08;;;6.22;;
29302;SDS011;60019;45.556;12.004;2023-02-05T07:20:39;10.02;;;5.80;;
29302;SDS011;60019;45.556;12.004;2023-02-05T07:26:40;9.60;;;5.70;;
29302;SDS011;60019;45.556;12.004;2023-02-05T07:32:43;8.02;;;5.60;;
29302;SDS011;60019;45.556;12.004;2023-02-05T07:38:45;12.40;;;5.97;;
29302;SDS011;60019;45.556;12.004;2023-02-05T07:44:47;11.23;;;7.05;;
29302;SDS011;60019;45.556;12.004;2023-02-05T07:50:48;13.10;;;7.28;;
29302;SDS011;60019;45.556;12.004;2023-02-05T07:56:50;12.88;;;7.13;;
29302;SDS011;60019;45.556;12.004;2023-02-05T08:02:52;14.77;;;8.10;;
29302;SDS011;60019;45.556;12.004;2023-02-05T08:08:53;11.75;;;7.05;;
29302;SDS011;60019;45.556;12.004;2023-02-05T08:14:55;13.43;;;7.65;;
29302;SDS011;60019;45.556;12.004;2023-02-05T08:20:57;10.10;;;6.15;;
29302;SDS011;60019;45.556;12.004;2023-02-05T08:26:58;15.10;;;7.75;;
29302;SDS011;60019;45.556;12.004;2023-02-05T08:33:00;13.18;;;8.13;;
29302;SDS011;60019;45.556;12.004;2023-02-05T08:39:02;11.25;;;6.70;;
29302;SDS011;60019;45.556;12.004;2023-02-05T08:45:04;10.48;;;6.93;;
29302;SDS011;60019;45.556;12.004;2023-02-05T08:51:09;12.05;;;6.90;;
29302;SDS011;60019;45.556;12.004;2023-02-05T08:57:12;12.45;;;6.40;;
29302;SDS011;60019;45.556;12.004;2023-02-05T09:03:13;8.75;;;6.30;;
29302;SDS011;60019;45.556;12.004;2023-02-05T09:09:15;10.05;;;6.47;;
29302;SDS011;60019;45.556;12.004;2023-02-05T09:15:17;7.47;;;5.47;;
29302;SDS011;60019;45.556;12.004;2023-02-05T09:21:19;9.65;;;5.95;;
29302;SDS011;60019;45.556;12.004;2023-02-05T09:27:21;9.90;;;6.68;;
29302;SDS011;60019;45.556;12.004;2023-02-05T09:33:23;10.60;;;5.75;;
29302;SDS011;60019;45.556;12.004;2023-02-05T09:39:24;7.07;;;4.95;;
29302;SDS011;60019;45.556;12.004;2023-02-05T09:45:47;7.22;;;4.97;;
29302;SDS011;60019;45.556;12.004;2023-02-05T09:52:16;8.02;;;5.45;;
29302;SDS011;60019;45.556;12.004;2023-02-05T09:58:26;8.32;;;5.10;;
29302;SDS011;60019;45.556;12.004;2023-02-05T10:04:31;6.78;;;4.90;;
29302;SDS011;60019;45.556;12.004;2023-02-05T10:10:35;6.78;;;4.75;;
29302;SDS011;60019;45.556;12.004;2023-02-05T10:29:31;7.30;;;4.65;;
29302;SDS011;60019;45.556;12.004;2023-02-05T10:35:55;6.65;;;4.70;;
29302;SDS011;60019;45.556;12.004;2023-02-05T10:48:22;7.25;;;5.00;;
29302;SDS011;60019;45.556;12.004;2023-02-05T10:54:33;7.72;;;4.82;;
29302;SDS011;60019;45.556;12.004;2023-02-05T11:00:35;7.82;;;4.88;;
29302;SDS011;60019;45.556;12.004;2023-02-05T11:06:37;7.45;;;4.68;;
29302;SDS011;60019;45.556;12.004;2023-02-05T11:12:55;10.73;;;5.20;;
29302;SDS011;60019;45.556;12.004;2023-02-05T11:19:17;6.03;;;4.13;;
29302;SDS011;60019;45.556;12.004;2023-02-05T11:25:22;10.20;;;4.45;;
29302;SDS011;60019;45.556;12.004;2023-02-05T11:31:28;5.85;;;4.22;;
29302;SDS011;60019;45.556;12.004;2023-02-05T11:37:36;5.75;;;3.97;;
29302;SDS011;60019;45.556;12.004;2023-02-05T11:43:49;7.20;;;5.03;;
29302;SDS011;60019;45.556;12.004;2023-02-05T11:49:52;14.52;;;7.97;;
29302;SDS011;60019;45.556;12.004;2023-02-05T11:55:56;21.90;;;6.93;;
29302;SDS011;60019;45.556;12.004;2023-02-05T12:27:41;6.20;;;4.80;;
29302;SDS011;60019;45.556;12.004;2023-02-05T12:34:00;7.28;;;4.70;;
29302;SDS011;60019;45.556;12.004;2023-02-05T13:05:48;10.18;;;5.28;;
29302;SDS011;60019;45.556;12.004;2023-02-05T13:12:05;7.13;;;4.50;;
29302;SDS011;60019;45.556;12.004;2023-02-05T13:18:16;12.13;;;5.25;;
29302;SDS011;60019;45.556;12.004;2023-02-05T13:24:37;7.80;;;4.95;;
29302;SDS011;60019;45.556;12.004;2023-02-05T13:37:45;5.72;;;4.30;;
29302;SDS011;60019;45.556;12.004;2023-02-05T13:56:56;5.20;;;3.80;;
29302;SDS011;60019;45.556;12.004;2023-02-05T14:03:29;4.88;;;3.95;;
29302;SDS011;60019;45.556;12.004;2023-02-05T14:09:40;8.70;;;4.60;;
29302;SDS011;60019;45.556;12.004;2023-02-05T14:15:52;5.75;;;3.40;;
29302;SDS011;60019;45.556;12.004;2023-02-05T14:28:01;7.22;;;3.70;;
29302;SDS011;60019;45.556;12.004;2023-02-05T14:41:04;5.38;;;3.13;;
29302;SDS011;60019;45.556;12.004;2023-02-05T14:47:19;4.80;;;2.95;;
29302;SDS011;60019;45.556;12.004;2023-02-05T14:53:26;9.23;;;4.05;;
29302;SDS011;60019;45.556;12.004;2023-02-05T14:59:51;8.10;;;3.55;;
29302;SDS011;60019;45.556;12.004;2023-02-05T15:06:04;8.18;;;5.18;;
29302;SDS011;60019;45.556;12.004;2023-02-05T15:19:08;12.23;;;5.13;;
29302;SDS011;60019;45.556;12.004;2023-02-05T15:25:21;7.25;;;4.88;;
29302;SDS011;60019;45.556;12.004;2023-02-05T15:37:51;13.98;;;8.38;;
29302;SDS011;60019;45.556;12.004;2023-02-05T15:44:02;98.93;;;43.67;;
29302;SDS011;60019;45.556;12.004;2023-02-05T15:50:04;67.43;;;30.65;;
29302;SDS011;60019;45.556;12.004;2023-02-05T16:02:20;42.88;;;20.98;;
29302;SDS011;60019;45.556;12.004;2023-02-05T16:08:35;33.50;;;16.85;;
29302;SDS011;60019;45.556;12.004;2023-02-05T16:14:45;27.05;;;13.93;;
29302;SDS011;60019;45.556;12.004;2023-02-05T16:20:57;21.70;;;12.27;;
29302;SDS011;60019;45.556;12.004;2023-02-05T16:27:05;18.13;;;9.63;;
29302;SDS011;60019;45.556;12.004;2023-02-05T16:39:24;19.93;;;10.27;;
29302;SDS011;60019;45.556;12.004;2023-02-05T16:45:28;17.15;;;8.82;;
29302;SDS011;60019;45.556;12.004;2023-02-05T16:57:44;19.33;;;8.90;;
29302;SDS011;60019;45.556;12.004;2023-02-05T17:03:48;14.98;;;7.53;;
29302;SDS011;60019;45.556;12.004;2023-02-05T17:09:50;16.08;;;8.18;;
29302;SDS011;60019;45.556;12.004;2023-02-05T17:15:52;15.48;;;8.38;;
29302;SDS011;60019;45.556;12.004;2023-02-05T17:28:15;13.52;;;6.97;;
29302;SDS011;60019;45.556;12.004;2023-02-05T17:34:19;12.68;;;6.80;;
29302;SDS011;60019;45.556;12.004;2023-02-05T17:40:20;9.55;;;6.22;;
29302;SDS011;60019;45.556;12.004;2023-02-05T17:46:22;9.07;;;6.25;;
29302;SDS011;60019;45.556;12.004;2023-02-05T17:52:23;14.85;;;6.65;;
29302;SDS011;60019;45.556;12.004;2023-02-05T17:58:25;11.45;;;6.43;;
29302;SDS011;60019;45.556;12.004;2023-02-05T18:04:26;11.65;;;6.60;;
29302;SDS011;60019;45.556;12.004;2023-02-05T18:10:29;14.85;;;7.63;;
29302;SDS011;60019;45.556;12.004;2023-02-05T18:16:34;15.40;;;8.68;;
29302;SDS011;60019;45.556;12.004;2023-02-05T18:22:36;22.95;;;12.13;;
29302;SDS011;60019;45.556;12.004;2023-02-05T18:28:38;19.10;;;12.23;;
29302;SDS011;60019;45.556;12.004;2023-02-05T18:34:40;104.15;;;52.08;;
29302;SDS011;60019;45.556;12.004;2023-02-05T18:40:43;84.25;;;42.70;;
29302;SDS011;60019;45.556;12.004;2023-02-05T18:46:45;74.15;;;38.95;;
29302;SDS011;60019;45.556;12.004;2023-02-05T18:52:46;61.25;;;33.42;;
29302;SDS011;60019;45.556;12.004;2023-02-05T18:58:56;64.70;;;37.17;;
29302;SDS011;60019;45.556;12.004;2023-02-05T19:05:00;62.05;;;34.80;;
29302;SDS011;60019;45.556;12.004;2023-02-05T19:11:06;82.78;;;41.40;;
29302;SDS011;60019;45.556;12.004;2023-02-05T19:17:15;138.52;;;64.30;;
29302;SDS011;60019;45.556;12.004;2023-02-05T19:23:16;108.43;;;55.35;;
29302;SDS011;60019;45.556;12.004;2023-02-05T19:29:18;81.35;;;41.03;;
29302;SDS011;60019;45.556;12.004;2023-02-05T19:35:20;57.88;;;33.75;;
29302;SDS011;60019;45.556;12.004;2023-02-05T19:41:23;49.10;;;28.08;;
29302;SDS011;60019;45.556;12.004;2023-02-05T19:47:26;40.63;;;25.90;;
29302;SDS011;60019;45.556;12.004;2023-02-05T19:53:28;41.38;;;27.13;;
29302;SDS011;60019;45.556;12.004;2023-02-05T19:59:30;35.63;;;24.13;;
29302;SDS011;60019;45.556;12.004;2023-02-05T20:05:34;40.88;;;25.85;;
29302;SDS011;60019;45.556;12.004;2023-02-05T20:11:37;47.47;;;28.92;;
29302;SDS011;60019;45.556;12.004;2023-02-05T20:17:42;44.35;;;26.92;;
29302;SDS011;60019;45.556;12.004;2023-02-05T20:23:44;38.00;;;23.15;;
29302;SDS011;60019;45.556;12.004;2023-02-05T20:29:46;32.72;;;22.17;;
29302;SDS011;60019;45.556;12.004;2023-02-05T20:42:10;36.42;;;22.48;;
29302;SDS011;60019;45.556;12.004;2023-02-05T20:48:15;37.42;;;23.48;;
29302;SDS011;60019;45.556;12.004;2023-02-05T20:54:17;43.80;;;25.38;;
29302;SDS011;60019;45.556;12.004;2023-02-05T21:00:19;33.47;;;20.58;;
29302;SDS011;60019;45.556;12.004;2023-02-05T21:06:23;33.67;;;22.05;;
29302;SDS011;60019;45.556;12.004;2023-02-05T21:12:26;34.35;;;21.50;;
29302;SDS011;60019;45.556;12.004;2023-02-05T21:18:32;36.15;;;24.08;;
29302;SDS011;60019;45.556;12.004;2023-02-05T21:24:34;34.45;;;22.13;;
29302;SDS011;60019;45.556;12.004;2023-02-05T21:30:36;31.85;;;21.02;;
29302;SDS011;60019;45.556;12.004;2023-02-05T21:36:38;25.33;;;17.88;;
29302;SDS011;60019;45.556;12.004;2023-02-05T21:42:40;26.60;;;18.35;;
29302;SDS011;60019;45.556;12.004;2023-02-05T21:48:45;27.95;;;17.90;;
29302;SDS011;60019;45.556;12.004;2023-02-05T21:54:48;31.35;;;19.33;;
29302;SDS011;60019;45.556;12.004;2023-02-05T22:00:51;151.77;;;64.18;;
29302;SDS011;60019;45.556;12.004;2023-02-05T22:06:53;116.22;;;55.80;;
29302;SDS011;60019;45.556;12.004;2023-02-05T22:12:54;85.68;;;43.47;;
29302;SDS011;60019;45.556;12.004;2023-02-05T22:18:56;65.47;;;34.67;;
29302;SDS011;60019;45.556;12.004;2023-02-05T22:24:59;53.38;;;29.30;;
29302;SDS011;60019;45.556;12.004;2023-02-05T22:31:08;43.50;;;26.30;;
29302;SDS011;60019;45.556;12.004;2023-02-05T22:37:10;36.55;;;23.10;;
29302;SDS011;60019;45.556;12.004;2023-02-05T22:43:12;37.33;;;22.15;;
29302;SDS011;60019;45.556;12.004;2023-02-05T22:49:14;35.65;;;21.35;;
29302;SDS011;60019;45.556;12.004;2023-02-05T22:55:15;31.05;;;20.10;;
29302;SDS011;60019;45.556;12.004;2023-02-05T23:01:21;33.22;;;20.83;;
29302;SDS011;60019;45.556;12.004;2023-02-05T23:07:30;28.85;;;19.13;;
29302;SDS011;60019;45.556;12.004;2023-02-05T23:13:33;31.08;;;20.13;;
29302;SDS011;60019;45.556;12.004;2023-02-05T23:19:34;28.20;;;18.60;;
29302;SDS011;60019;45.556;12.004;2023-02-05T23:25:36;32.42;;;19.70;;
29302;SDS011;60019;45.556;12.004;2023-02-05T23:31:37;27.38;;;18.08;;
29302;SDS011;60019;45.556;12.004;2023-02-05T23:37:39;31.42;;;18.58;;
29302;SDS011;60019;45.556;12.004;2023-02-05T23:43:41;25.75;;;18.00;;
29302;SDS011;60019;45.556;12.004;2023-02-05T23:49:42;28.15;;;18.92;;
29302;SDS011;60019;45.556;12.004;2023-02-05T23:55:44;25.85;;;18.17;;
